createdAt,value
2019-05-03T00:01:17.217Z,100.00
2019-05-03T00:04:22.288Z,100.00
2019-05-03T00:07:25.136Z,100.00
2019-05-03T00:10:28.333Z,100.00
2019-05-03T00:13:32.516Z,100.00
2019-05-03T00:16:37.551Z,100.00
2019-05-03T00:19:42.230Z,100.00
2019-05-03T00:22:45.188Z,100.00
2019-05-03T00:25:48.089Z,100.00
2019-05-03T00:28:52.045Z,100.00
2019-05-03T00:31:55.521Z,100.00
2019-05-03T00:35:01.869Z,100.00
2019-05-03T00:38:06.804Z,100.00
2019-05-03T00:41:09.658Z,100.00
2019-05-03T00:44:12.603Z,100.00
2019-05-03T00:47:16.627Z,100.00
2019-05-03T00:50:19.542Z,100.00
2019-05-03T00:53:22.543Z,100.00
2019-05-03T00:56:25.532Z,100.00
2019-05-03T00:59:28.448Z,100.00
2019-05-03T01:02:31.966Z,100.00
2019-05-03T01:05:35.005Z,100.00
2019-05-03T01:08:37.939Z,100.00
2019-05-03T01:11:41.790Z,100.00
2019-05-03T01:14:46.785Z,100.00
2019-05-03T01:17:49.695Z,100.00
2019-05-03T01:20:52.985Z,100.00
2019-05-03T01:23:55.919Z,100.00
2019-05-03T01:26:58.856Z,100.00
2019-05-03T01:30:02.968Z,100.00
2019-05-03T01:33:07.295Z,100.00
2019-05-03T01:36:11.977Z,100.00
2019-05-03T01:39:15.053Z,100.00
2019-05-03T01:42:17.966Z,100.00
2019-05-03T01:45:22.748Z,100.00
2019-05-03T01:48:38.752Z,100.00
2019-05-03T01:52:02.089Z,100.00
2019-05-03T01:55:05.409Z,100.00
2019-05-03T01:58:12.494Z,100.00
2019-05-03T02:01:42.202Z,100.00
2019-05-03T02:04:54.025Z,100.00
2019-05-03T02:07:56.925Z,100.00
2019-05-03T02:10:59.772Z,100.00
2019-05-03T02:14:03.909Z,100.00
2019-05-03T02:17:06.795Z,100.00
2019-05-03T02:20:09.745Z,100.00
2019-05-03T02:23:12.613Z,100.00
2019-05-03T02:26:15.500Z,100.00
2019-05-03T02:29:18.428Z,100.00
2019-05-03T02:32:23.273Z,100.00
2019-05-03T02:35:26.164Z,100.00
2019-05-03T02:38:29.315Z,100.00
2019-05-03T02:41:32.942Z,100.00
2019-05-03T02:44:38.155Z,100.00
2019-05-03T02:47:57.075Z,100.00
2019-05-03T02:50:59.922Z,100.00
2019-05-03T02:54:05.674Z,100.00
2019-05-03T02:57:08.769Z,100.00
2019-05-03T03:00:16.447Z,100.00
2019-05-03T03:03:25.425Z,100.00
2019-05-03T03:06:30.282Z,100.00
2019-05-03T03:09:36.026Z,100.00
2019-05-03T03:12:42.119Z,100.00
2019-05-03T03:15:50.341Z,100.00
2019-05-03T03:18:58.743Z,100.00
2019-05-03T03:22:06.373Z,100.00
2019-05-03T03:25:17.813Z,100.00
2019-05-03T03:28:25.272Z,100.00
2019-05-03T03:32:18.423Z,100.00
2019-05-03T03:35:29.675Z,100.00
2019-05-03T03:38:31.940Z,100.00
2019-05-03T03:41:35.481Z,100.00
2019-05-03T03:44:39.624Z,100.00
2019-05-03T03:47:46.606Z,100.00
2019-05-03T03:50:52.427Z,100.00
2019-05-03T03:53:59.194Z,100.00
2019-05-03T03:57:07.911Z,100.00
2019-05-03T04:00:10.263Z,100.00
2019-05-03T04:03:15.788Z,100.00
2019-05-03T04:06:20.714Z,100.00
2019-05-03T04:09:25.579Z,100.00
2019-05-03T04:12:28.767Z,100.00
2019-05-03T04:15:51.633Z,100.00
2019-05-03T04:19:17.140Z,100.00
2019-05-03T04:22:19.513Z,100.00
2019-05-03T04:25:22.767Z,100.00
2019-05-03T04:28:26.114Z,100.00
2019-05-03T04:31:29.039Z,100.00
2019-05-03T04:34:31.984Z,100.00
2019-05-03T04:37:35.991Z,100.00
2019-05-03T04:40:39.090Z,100.00
2019-05-03T04:43:42.027Z,100.00
2019-05-03T04:46:46.515Z,100.00
2019-05-03T04:49:49.709Z,100.00
2019-05-03T04:52:52.621Z,100.00
2019-05-03T04:55:55.984Z,100.00
2019-05-03T04:58:59.083Z,100.00
2019-05-03T05:02:02.024Z,100.00
2019-05-03T05:05:06.272Z,100.00
2019-05-03T05:08:09.427Z,100.00
2019-05-03T05:11:12.342Z,100.00
2019-05-03T05:14:15.521Z,100.00
2019-05-03T05:17:28.812Z,100.00
2019-05-03T05:20:48.749Z,100.00
2019-05-03T05:24:05.536Z,100.00
2019-05-03T05:27:29.441Z,100.00
2019-05-03T05:30:32.484Z,100.00
2019-05-03T05:33:35.738Z,100.00
2019-05-03T05:36:38.633Z,100.00
2019-05-03T05:39:44.701Z,100.00
2019-05-03T05:42:47.792Z,100.00
2019-05-03T05:45:50.722Z,100.00
2019-05-03T05:48:55.439Z,100.00
2019-05-03T05:51:58.558Z,100.00
2019-05-03T05:55:36.696Z,100.00
2019-05-03T05:58:47.362Z,100.00
2019-05-03T06:02:09.902Z,100.00
2019-05-03T06:05:14.824Z,100.00
2019-05-03T06:08:40.154Z,100.00
2019-05-03T06:11:56.551Z,100.00
2019-05-03T06:15:04.769Z,100.00
2019-05-03T06:18:14.710Z,100.00
2019-05-03T06:21:28.792Z,100.00
2019-05-03T06:24:37.011Z,100.00
2019-05-03T06:27:39.943Z,100.00
2019-05-03T06:30:54.399Z,100.00
2019-05-03T06:33:57.444Z,100.00
2019-05-03T06:37:04.478Z,100.00
2019-05-03T06:40:07.827Z,100.00
2019-05-03T06:43:12.915Z,100.00
2019-05-03T06:46:18.108Z,100.00
2019-05-03T06:49:20.357Z,100.00
2019-05-03T06:52:27.655Z,100.00
2019-05-03T06:55:28.100Z,100.00
2019-05-03T06:58:33.713Z,100.00
2019-05-03T07:01:55.487Z,100.00
2019-05-03T07:04:59.495Z,100.00
2019-05-03T07:08:20.932Z,100.00
2019-05-03T07:11:24.773Z,100.00
2019-05-03T07:14:28.190Z,100.00
2019-05-03T07:17:31.483Z,100.00
2019-05-03T07:20:56.949Z,100.00
2019-05-03T07:23:59.712Z,100.00
2019-05-03T07:27:02.616Z,100.00
2019-05-03T07:30:06.021Z,100.00
2019-05-03T07:33:16.080Z,100.00
2019-05-03T07:36:19.316Z,100.00
2019-05-03T07:39:24.348Z,100.00
2019-05-03T07:42:27.048Z,100.00
2019-05-03T07:45:30.268Z,100.00
2019-05-03T07:48:35.337Z,100.00
2019-05-03T07:51:38.431Z,100.00
2019-05-03T07:54:41.348Z,100.00
2019-05-03T07:57:56.110Z,100.00
2019-05-03T08:01:06.042Z,100.00
2019-05-03T08:04:05.822Z,100.00
2019-05-03T08:07:20.642Z,100.00
2019-05-03T08:10:16.086Z,100.00
2019-05-03T08:13:19.051Z,100.00
2019-05-03T08:16:21.983Z,100.00
2019-05-03T08:19:26.957Z,100.00
2019-05-03T08:22:29.747Z,100.00
2019-05-03T08:25:32.604Z,100.00
2019-05-03T08:28:36.550Z,100.00
2019-05-03T08:31:57.090Z,100.00
2019-05-03T08:35:24.421Z,100.00
2019-05-03T08:38:27.848Z,100.00
2019-05-03T08:41:32.688Z,100.00
2019-05-03T08:44:35.618Z,100.00
2019-05-03T08:47:38.529Z,100.00
2019-05-03T08:50:41.464Z,100.00
2019-05-03T08:53:45.889Z,100.00
2019-05-03T08:56:49.473Z,100.00
2019-05-03T08:59:54.950Z,100.00
2019-05-03T09:02:58.072Z,100.00
2019-05-03T09:06:01.038Z,100.00
2019-05-03T09:09:07.341Z,100.00
2019-05-03T09:12:10.513Z,100.00
2019-05-03T09:15:15.178Z,100.00
2019-05-03T09:18:18.256Z,100.00
2019-05-03T09:21:21.192Z,100.00
2019-05-03T09:24:24.565Z,100.00
2019-05-03T09:27:27.732Z,100.00
2019-05-03T09:30:30.750Z,100.00
2019-05-03T09:33:35.569Z,92.03
2019-05-03T09:36:38.629Z,96.34
2019-05-03T09:39:41.545Z,87.20
2019-05-03T09:42:45.753Z,82.75
2019-05-03T09:45:48.672Z,89.63
2019-05-03T09:48:51.632Z,96.05
2019-05-03T09:51:55.009Z,99.19
2019-05-03T09:54:59.955Z,97.79
2019-05-03T09:58:05.277Z,95.16
2019-05-03T10:01:08.541Z,93.81
2019-05-03T10:04:12.065Z,94.37
2019-05-03T10:07:15.425Z,97.12
2019-05-03T10:10:18.511Z,100.00
2019-05-03T10:13:23.456Z,100.00
2019-05-03T10:16:28.756Z,100.00
2019-05-03T10:19:37.644Z,96.33
2019-05-03T10:22:36.523Z,87.28
2019-05-03T10:25:40.555Z,83.08
2019-05-03T10:28:43.580Z,79.57
2019-05-03T10:31:54.671Z,82.43
2019-05-03T10:35:01.374Z,83.20
2019-05-03T10:38:05.792Z,85.74
2019-05-03T10:41:09.220Z,87.76
2019-05-03T10:44:12.139Z,80.98
2019-05-03T10:47:15.148Z,80.30
2019-05-03T10:50:18.182Z,79.91
2019-05-03T10:53:31.981Z,82.09
2019-05-03T10:56:49.510Z,81.57
2019-05-03T10:59:52.451Z,80.67
2019-05-03T11:03:00.493Z,80.29
2019-05-03T11:06:05.387Z,82.25
2019-05-03T11:09:08.460Z,74.88
2019-05-03T11:12:11.659Z,81.13
2019-05-03T11:15:15.029Z,76.79
2019-05-03T11:18:18.091Z,84.61
2019-05-03T11:21:28.173Z,80.70
2019-05-03T11:24:27.584Z,78.25
2019-05-03T11:27:55.166Z,77.47
2019-05-03T11:31:17.064Z,76.73
2019-05-03T11:34:22.761Z,71.91
2019-05-03T11:37:45.317Z,73.05
2019-05-03T11:40:48.519Z,77.21
2019-05-03T11:43:51.447Z,74.20
2019-05-03T11:46:55.146Z,78.56
2019-05-03T11:49:58.246Z,79.88
2019-05-03T11:53:01.159Z,76.03
2019-05-03T11:56:05.547Z,76.13
2019-05-03T11:59:08.624Z,77.29
2019-05-03T12:02:40.086Z,75.22
2019-05-03T12:05:46.512Z,69.06
2019-05-03T12:08:49.421Z,66.40
2019-05-03T12:11:55.399Z,73.09
2019-05-03T12:14:59.576Z,61.72
2019-05-03T12:18:06.197Z,63.30
2019-05-03T12:21:12.078Z,69.04
2019-05-03T12:24:16.154Z,71.27
2019-05-03T12:27:19.587Z,67.00
2019-05-03T12:30:27.009Z,69.63
2019-05-03T12:33:27.598Z,68.71
2019-05-03T12:36:30.578Z,67.89
2019-05-03T12:39:35.821Z,68.15
2019-05-03T12:42:38.345Z,69.59
2019-05-03T12:45:41.270Z,66.28
2019-05-03T12:48:44.806Z,64.71
2019-05-03T12:51:48.908Z,61.18
2019-05-03T12:54:51.822Z,60.11
2019-05-03T12:57:55.612Z,53.91
2019-05-03T13:01:33.989Z,60.31
2019-05-03T13:04:33.236Z,64.34
2019-05-03T13:07:45.511Z,63.67
2019-05-03T13:10:48.616Z,62.61
2019-05-03T13:13:51.863Z,62.71
2019-05-03T13:16:55.231Z,67.06
2019-05-03T13:19:58.342Z,63.88
2019-05-03T13:23:01.280Z,72.47
2019-05-03T13:26:05.583Z,68.28
2019-05-03T13:29:09.027Z,69.06
2019-05-03T13:32:11.934Z,63.15
2019-05-03T13:35:15.149Z,63.90
2019-05-03T13:38:19.394Z,69.33
2019-05-03T13:41:22.300Z,67.40
2019-05-03T13:44:25.243Z,65.94
2019-05-03T13:47:28.145Z,68.66
2019-05-03T13:50:32.222Z,63.83
2019-05-03T13:53:35.161Z,67.66
2019-05-03T13:56:38.081Z,64.23
2019-05-03T13:59:40.997Z,69.97
2019-05-03T14:02:44.912Z,69.01
2019-05-03T14:05:48.034Z,71.18
2019-05-03T14:08:51.039Z,74.54
2019-05-03T14:11:55.349Z,72.20
2019-05-03T14:14:58.436Z,71.18
2019-05-03T14:18:01.359Z,75.09
2019-05-03T14:21:15.077Z,70.63
2019-05-03T14:24:18.599Z,68.01
2019-05-03T14:27:21.525Z,60.33
2019-05-03T14:30:25.544Z,59.13
2019-05-03T14:33:28.489Z,66.33
2019-05-03T14:36:31.402Z,66.92
2019-05-03T14:39:34.387Z,63.86
2019-05-03T14:42:37.318Z,66.01
2019-05-03T14:45:40.213Z,64.81
2019-05-03T14:48:43.145Z,66.26
2019-05-03T14:51:46.061Z,67.92
2019-05-03T14:54:51.427Z,63.61
2019-05-03T14:58:05.788Z,60.96
2019-05-03T15:01:25.640Z,63.22
2019-05-03T15:04:28.917Z,60.72
2019-05-03T15:07:31.819Z,63.01
2019-05-03T15:10:35.142Z,62.30
2019-05-03T15:13:38.106Z,64.87
2019-05-03T15:16:41.123Z,66.25
2019-05-03T15:19:45.390Z,68.21
2019-05-03T15:22:48.396Z,64.92
2019-05-03T15:25:51.336Z,67.57
2019-05-03T15:28:55.438Z,73.82
2019-05-03T15:31:58.466Z,68.31
2019-05-03T15:35:01.397Z,64.03
2019-05-03T15:38:05.382Z,68.96
2019-05-03T15:41:08.707Z,64.96
2019-05-03T15:44:25.281Z,65.45
2019-05-03T15:47:41.954Z,64.44
2019-05-03T15:50:44.886Z,64.25
2019-05-03T15:53:47.784Z,65.81
2019-05-03T15:56:50.708Z,65.82
2019-05-03T15:59:55.105Z,63.51
2019-05-03T16:03:07.470Z,65.45
2019-05-03T16:06:04.938Z,71.13
2019-05-03T16:09:08.115Z,71.51
2019-05-03T16:12:11.756Z,72.31
2019-05-03T16:15:15.117Z,72.73
2019-05-03T16:18:18.038Z,68.23
2019-05-03T16:21:20.942Z,69.62
2019-05-03T16:24:24.946Z,73.83
2019-05-03T16:27:47.646Z,77.66
2019-05-03T16:30:56.661Z,72.52
2019-05-03T16:33:59.903Z,70.65
2019-05-03T16:37:04.457Z,71.27
2019-05-03T16:40:07.485Z,71.60
2019-05-03T16:43:10.409Z,71.99
2019-05-03T16:46:14.522Z,71.90
2019-05-03T16:49:17.686Z,73.36
2019-05-03T16:52:20.590Z,74.97
2019-05-03T16:55:25.175Z,73.67
2019-05-03T16:58:28.564Z,74.47
2019-05-03T17:01:31.499Z,75.56
2019-05-03T17:04:57.138Z,73.97
2019-05-03T17:08:31.628Z,74.06
2019-05-03T17:11:34.856Z,74.13
2019-05-03T17:14:37.808Z,75.11
2019-05-03T17:17:40.719Z,77.63
2019-05-03T17:20:45.332Z,76.89
2019-05-03T17:23:48.478Z,75.99
2019-05-03T17:26:51.759Z,76.25
2019-05-03T17:29:55.400Z,80.48
2019-05-03T17:32:58.518Z,76.91
2019-05-03T17:36:01.458Z,77.81
2019-05-03T17:39:09.816Z,77.12
2019-05-03T17:42:22.079Z,80.62
2019-05-03T17:45:30.805Z,81.26
2019-05-03T17:48:34.875Z,82.32
2019-05-03T17:51:48.560Z,83.98
2019-05-03T17:55:11.094Z,85.01
2019-05-03T17:58:36.992Z,84.18
2019-05-03T18:01:58.068Z,84.74
2019-05-03T18:05:20.839Z,82.86
2019-05-03T18:08:35.388Z,85.49
2019-05-03T18:11:40.622Z,85.38
2019-05-03T18:14:45.049Z,87.15
2019-05-03T18:17:48.182Z,84.71
2019-05-03T18:20:51.093Z,84.73
2019-05-03T18:23:54.528Z,83.18
2019-05-03T18:26:57.625Z,85.72
2019-05-03T18:30:00.555Z,86.29
2019-05-03T18:33:04.849Z,86.02
2019-05-03T18:36:08.055Z,85.22
2019-05-03T18:39:11.489Z,83.18
2019-05-03T18:42:21.518Z,86.55
2019-05-03T18:45:42.632Z,81.85
2019-05-03T18:48:45.803Z,84.76
2019-05-03T18:51:49.088Z,85.03
2019-05-03T18:54:52.308Z,82.89
2019-05-03T18:57:55.235Z,82.84
2019-05-03T19:00:58.194Z,87.05
2019-05-03T19:04:12.342Z,86.52
2019-05-03T19:07:37.799Z,83.73
2019-05-03T19:11:04.543Z,85.03
2019-05-03T19:14:08.956Z,86.97
2019-05-03T19:17:37.783Z,86.71
2019-05-03T19:20:40.842Z,84.82
2019-05-03T19:23:44.816Z,89.70
2019-05-03T19:26:47.976Z,91.20
2019-05-03T19:29:50.916Z,92.96
2019-05-03T19:32:55.202Z,91.56
2019-05-03T19:36:00.247Z,95.09
2019-05-03T19:39:05.329Z,95.42
2019-05-03T19:42:10.499Z,96.19
2019-05-03T19:45:15.164Z,100.00
2019-05-03T19:48:18.263Z,100.00
2019-05-03T19:51:21.212Z,100.00
2019-05-03T19:54:24.411Z,100.00
2019-05-03T19:57:34.816Z,100.00
2019-05-03T20:00:46.023Z,100.00
2019-05-03T20:03:55.419Z,100.00
2019-05-03T20:07:10.857Z,100.00
2019-05-03T20:10:14.979Z,100.00
2019-05-03T20:13:31.759Z,100.00
2019-05-03T20:16:24.129Z,100.00
2019-05-03T20:19:27.016Z,100.00
2019-05-03T20:22:29.988Z,100.00
2019-05-03T20:25:35.003Z,100.00
2019-05-03T20:28:37.925Z,100.00
2019-05-03T20:31:42.266Z,100.00
2019-05-03T20:34:45.180Z,100.00
2019-05-03T20:37:48.144Z,100.00
2019-05-03T20:40:51.046Z,100.00
2019-05-03T20:44:14.316Z,100.00
2019-05-03T20:47:37.111Z,100.00
2019-05-03T20:50:40.417Z,100.00
2019-05-03T20:53:44.928Z,100.00
2019-05-03T20:56:47.970Z,100.00
2019-05-03T20:59:52.032Z,100.00
2019-05-03T21:02:57.301Z,100.00
2019-05-03T21:06:02.426Z,100.00
2019-05-03T21:09:06.908Z,100.00
2019-05-03T21:12:11.721Z,100.00
2019-05-03T21:15:24.699Z,100.00
2019-05-03T21:18:43.533Z,100.00
2019-05-03T21:21:54.931Z,100.00
2019-05-03T21:25:11.999Z,100.00
2019-05-03T21:28:16.173Z,100.00
2019-05-03T21:31:20.340Z,100.00
2019-05-03T21:34:25.047Z,100.00
2019-05-03T21:37:28.450Z,100.00
2019-05-03T21:40:31.358Z,100.00
2019-05-03T21:43:34.857Z,100.00
2019-05-03T21:46:46.283Z,100.00
2019-05-03T21:49:50.348Z,100.00
2019-05-03T21:52:57.496Z,100.00
2019-05-03T21:56:01.158Z,100.00
2019-05-03T21:59:05.559Z,100.00
2019-05-03T22:02:08.691Z,100.00
2019-05-03T22:05:11.636Z,100.00
2019-05-03T22:08:14.541Z,100.00
2019-05-03T22:11:17.477Z,100.00
2019-05-03T22:14:28.996Z,100.00
2019-05-03T22:17:50.009Z,100.00
2019-05-03T22:20:58.951Z,100.00
2019-05-03T22:24:14.660Z,100.00
2019-05-03T22:27:19.524Z,100.00
2019-05-03T22:30:24.333Z,100.00
2019-05-03T22:33:27.248Z,100.00
2019-05-03T22:36:30.176Z,100.00
2019-05-03T22:39:33.430Z,100.00
2019-05-03T22:42:36.355Z,100.00
2019-05-03T22:45:39.298Z,100.00
2019-05-03T22:48:42.206Z,100.00
2019-05-03T22:51:45.291Z,100.00
2019-05-03T22:54:48.477Z,100.00
2019-05-03T22:57:51.440Z,100.00
2019-05-03T23:00:55.100Z,100.00
2019-05-03T23:03:58.112Z,100.00
2019-05-03T23:07:01.019Z,100.00
2019-05-03T23:10:04.631Z,100.00
2019-05-03T23:13:07.619Z,100.00
2019-05-03T23:16:10.551Z,100.00
2019-05-03T23:19:14.984Z,100.00
2019-05-03T23:22:25.028Z,100.00
2019-05-03T23:25:30.655Z,100.00
2019-05-03T23:28:35.523Z,100.00
2019-05-03T23:31:38.109Z,100.00
2019-05-03T23:34:41.049Z,100.00
2019-05-03T23:37:45.455Z,100.00
2019-05-03T23:40:48.411Z,100.00
2019-05-03T23:43:51.351Z,100.00
2019-05-03T23:47:16.874Z,100.00
2019-05-03T23:50:22.062Z,100.00
2019-05-03T23:53:24.982Z,100.00
2019-05-03T23:56:27.892Z,100.00
2019-05-03T23:59:30.849Z,100.00
